Latest Weather Observations for Longreach

IDQ60801

Issued at 8:02 am EST Thursday 23 March 2017 (issued every 30 minutes, with the page automatically refreshed every 10 minutes)

About weather observations | Map of weather stations | Latest weather observations for QLD | Other Formats
Station Details ID: 036031 Name: LONGREACH AERO Lat: -23.44 Lon: 144.28 Height: 192.2 m
Data from the previous 72 hours. | See also: Recent months at Longreach
Date/Time
EST
Temp
°C
App
Temp
°C
Dew
Point
°C
Rel
Hum
%
Delta-T
°C
Wind Press
QNH
hPa
Press
MSL
hPa
Rain since
9am
mm
Dir  Spd
km/h
Gust
km/h
Spd
kts
Gust
kts
23/07:30am 24.7 27.1 21.6 83 2.1 ENE 11 13 6 7 1012.5 1011.3 0.0
23/07:00am 23.1 25.8 21.3 90 1.2 E 9 9 5 5 1012.0 1010.8 0.0
23/06:30am 22.1 25.0 21.0 93 0.7 ENE 7 9 4 5 1011.8 1010.6 0.0
23/06:00am 22.3 24.8 21.1 93 0.8 ENE 9 9 5 5 1011.4 1010.2 0.0
23/05:30am 22.5 25.0 21.1 92 0.9 E 9 11 5 6 1011.1 1009.9 0.0
23/05:00am 22.9 25.5 21.2 90 1.1 E 9 11 5 6 1010.9 1009.7 0.0
23/04:30am 22.9 25.2 21.4 91 1.0 E 11 11 6 6 1010.7 1009.5 0.0
23/04:00am 23.3 25.6 21.3 88 1.3 ESE 11 13 6 7 1010.6 1009.4 0.0
23/03:30am 23.7 26.0 21.3 86 1.6 E 11 11 6 6 1010.4 1009.1 0.0
23/03:00am 23.7 25.9 21.1 85 1.7 E 11 11 6 6 1010.4 1009.1 0.0
23/02:30am 24.1 26.6 21.1 83 2.0 ENE 9 11 5 6 1010.4 1009.1 0.0
23/02:00am 24.8 26.9 21.0 79 2.5 ENE 11 13 6 7 1010.6 1009.4 0.0
23/01:30am 25.0 26.7 20.9 78 2.7 ENE 13 13 7 7 1010.8 1009.6 0.0
23/01:00am 25.5 27.1 20.8 75 3.1 ENE 13 15 7 8 1011.0 1009.8 0.0
23/12:30am 25.8 27.8 20.8 74 3.3 ENE 11 13 6 7 1011.2 1010.0 0.0
23/12:00am 26.3 27.7 20.4 70 3.9 ENE 13 15 7 8 1011.3 1010.1 0.0
 
Date/Time
EST
Temp
°C
App
Temp
°C
Dew
Point
°C
Rel
Hum
%
Delta-T
°C
Wind Press
QNH
hPa
Press
MSL
hPa
Rain since
9am
mm
Dir  Spd
km/h
Gust
km/h
Spd
kts
Gust
kts
22/11:30pm 26.5 27.9 20.3 68 4.1 ENE 13 17 7 9 1011.4 1010.2 0.0
22/11:00pm 26.7 28.0 20.2 67 4.3 ENE 13 15 7 8 1011.5 1010.3 0.0
22/10:30pm 27.5 28.7 19.9 63 5.0 ENE 13 17 7 9 1011.5 1010.3 0.0
22/10:00pm 28.2 28.8 19.5 59 5.7 E 15 19 8 10 1011.2 1010.0 0.0
22/09:30pm 27.9 29.4 20.5 64 4.9 E 13 15 7 8 1010.8 1009.6 0.0
22/09:00pm 28.4 29.8 20.4 62 5.3 E 13 13 7 7 1010.4 1009.1 0.0
22/08:30pm 29.1 30.8 20.2 58 5.9 ESE 11 13 6 7 1010.1 1008.8 0.0
22/08:00pm 30.3 31.1 19.0 50 7.4 ESE 13 15 7 8 1009.4 1008.2 0.0
22/07:30pm 30.7 31.7 18.6 48 7.9 SSE 11 11 6 6 1009.0 1007.8 0.0
22/07:00pm 31.7 32.3 17.8 43 9.0 S 11 13 6 7 1008.7 1007.5 0.0
22/06:30pm 32.6 32.8 17.6 40 9.7 SSE 13 15 7 8 1008.5 1007.3 0.0
22/06:00pm 33.8 32.7 16.4 35 11.1 SSE 17 28 9 15 1008.4 1007.2 0.0
22/05:30pm 34.3 33.4 16.9 35 11.2 SSE 17 26 9 14 1008.4 1007.2 0.0
22/05:00pm 34.5 32.3 17.0 35 11.3 SSE 24 32 13 17 1008.3 1007.1 0.0
22/04:30pm 34.7 32.6 17.2 35 11.3 SSE 24 37 13 20 1008.3 1007.1 0.0
22/04:00pm 34.6 32.9 17.1 35 11.3 SE 22 30 12 16 1008.7 1007.5 0.0
22/03:30pm 33.8 32.7 17.4 37 10.6 SSE 19 32 10 17 1008.9 1007.7 0.0
22/03:00pm 34.5 34.1 18.0 37 10.8 SSE 17 32 9 17 1009.2 1008.0 0.0
22/02:30pm 34.0 32.3 18.1 39 10.4 SSE 24 33 13 18 1009.5 1008.3 0.0
22/02:00pm 34.0 33.0 18.9 41 10.0 SSE 22 32 12 17 1010.1 1008.8 0.0
22/01:30pm 32.5 32.3 19.4 46 8.7 SSE 19 28 10 15 1010.6 1009.4 0.0
22/01:00pm 32.6 33.7 19.7 46 8.6 SE 13 26 7 14 1010.9 1009.7 0.0
22/12:30pm 31.3 33.4 20.2 51 7.4 ENE 9 19 5 10 1011.5 1010.3 0.0
22/12:00pm 30.5 32.0 20.5 55 6.7 SE 13 20 7 11 1012.0 1010.8 0.0
22/11:30am 29.5 31.1 20.7 59 5.9 SSE 13 17 7 9 1012.5 1011.3 0.0
22/11:00am 29.2 31.6 20.8 60 5.6 NNE 9 19 5 10 1012.8 1011.6 0.0
22/10:30am 27.5 29.8 20.6 66 4.6 NE 9 13 5 7 1013.1 1011.9 0.0
22/10:00am 28.3 30.3 20.8 63 5.0 NE 11 17 6 9 1013.1 1011.9 0.0
22/09:30am 27.8 29.2 20.4 64 4.9 ENE 13 19 7 10 1013.1 1011.9 0.0
22/09:00am 26.3 27.4 20.5 70 3.8 ENE 15 20 8 11 1013.2 1012.0 0.0
22/08:30am 26.0 26.8 20.7 72 3.5 ENE 17 22 9 12 1013.0 1011.8 0.0
22/08:00am 24.8 26.1 20.9 79 2.6 E 15 20 8 11 1012.8 1011.6 0.0
22/07:30am 24.0 25.9 21.3 85 1.8 E 13 17 7 9 1012.8 1011.6 0.0
22/07:00am 22.7 24.9 21.2 91 1.0 ESE 11 11 6 6 1012.6 1011.4 0.0
22/06:30am 22.0 23.8 21.1 95 0.6 E 13 17 7 9 1012.2 1011.0 0.0
22/06:00am 22.2 24.0 21.1 93 0.7 ESE 13 15 7 8 1011.9 1010.7 0.0
22/05:30am 22.4 24.2 21.2 93 0.8 E 13 15 7 8 1011.5 1010.3 0.0
22/05:00am 22.5 24.8 21.4 93 0.7 E 11 15 6 8 1011.3 1010.1 0.0
22/04:30am 22.6 24.5 21.4 93 0.8 E 13 15 7 8 1011.0 1009.8 0.0
22/04:00am 22.8 24.7 21.4 92 0.9 E 13 17 7 9 1011.0 1009.8 0.0
22/03:30am 23.0 25.4 21.5 91 1.0 E 11 15 6 8 1011.1 1009.9 0.0
22/03:00am 23.2 25.1 21.4 90 1.2 ENE 13 15 7 8 1011.3 1010.1 0.0
22/02:30am 23.6 25.1 21.2 86 1.6 E 15 19 8 10 1011.5 1010.3 0.0
22/02:00am 24.0 25.0 21.1 84 1.9 E 17 28 9 15 1011.7 1010.5 0.0
22/01:30am 24.2 24.9 21.2 83 2.0 E 19 26 10 14 1011.6 1010.4 0.0
22/01:00am 24.4 25.0 21.1 82 2.2 E 19 22 10 12 1011.6 1010.4 0.0
22/12:30am 24.8 25.4 21.0 79 2.5 ENE 19 26 10 14 1011.8 1010.6 0.0
22/12:00am 25.1 25.6 20.9 77 2.8 ENE 19 26 10 14 1012.1 1010.9 0.0
 
Date/Time
EST
Temp
°C
App
Temp
°C
Dew
Point
°C
Rel
Hum
%
Delta-T
°C
Wind Press
QNH
hPa
Press
MSL
hPa
Rain since
9am
mm
Dir  Spd
km/h
Gust
km/h
Spd
kts
Gust
kts
21/11:30pm 25.6 26.1 20.8 75 3.2 ENE 19 26 10 14 1012.2 1011.0 0.0
21/11:00pm 26.1 26.4 20.7 72 3.6 ENE 20 26 11 14 1012.3 1011.1 0.0
21/10:30pm 26.6 27.0 20.6 69 4.0 ENE 19 24 10 13 1012.2 1011.0 0.0
21/10:00pm 27.3 27.6 20.7 67 4.4 E 20 26 11 14 1011.8 1010.6 0.0
21/09:30pm 28.1 27.3 20.1 62 5.3 E 24 33 13 18 1011.5 1010.3 0.0
21/09:00pm 28.5 29.0 20.9 63 5.1 E 19 28 10 15 1011.3 1010.1 0.0
21/08:30pm 28.9 29.3 20.7 61 5.5 E 19 26 10 14 1010.6 1009.4 0.0
21/08:00pm 29.3 29.6 19.6 56 6.4 ESE 17 20 9 11 1010.1 1008.8 0.0
21/07:30pm 30.0 31.3 20.1 55 6.6 ESE 13 15 7 8 1010.0 1008.7 0.0
21/07:00pm 30.4 31.5 19.7 52 7.1 SSE 13 13 7 7 1009.3 1008.1 0.0
21/06:30pm 31.3 32.2 19.3 49 7.9 SSE 13 17 7 9 1009.3 1008.1 0.0
21/06:00pm 32.6 32.5 17.8 41 9.6 SSE 15 20 8 11 1009.0 1007.8 0.0
21/05:30pm 33.3 33.1 18.5 41 9.7 SSE 17 20 9 11 1008.7 1007.5 0.0
21/05:00pm 33.2 33.5 18.0 40 9.9 SE 13 17 7 9 1008.7 1007.5 0.0
21/04:30pm 33.2 34.0 18.2 41 9.8 S 11 15 6 8 1008.6 1007.4 0.0
21/04:00pm 33.3 34.8 18.1 40 9.9 SSW 7 13 4 7 1008.7 1007.5 0.0
21/03:30pm 33.4 33.5 18.3 40 9.9 SSE 15 22 8 12 1008.8 1007.6 0.0
21/03:00pm 33.1 34.3 19.0 43 9.3 SE 11 20 6 11 1009.1 1007.9 0.0
21/02:30pm 33.2 34.7 18.8 42 9.5 SE 9 19 5 10 1009.8 1008.5 0.0
21/02:00pm 32.7 34.7 19.1 44 9.0 ENE 7 11 4 6 1010.2 1008.9 0.0
21/01:30pm 32.7 33.9 19.0 44 9.0 NE 11 17 6 9 1010.7 1009.5 0.0
21/01:00pm 31.8 32.7 18.3 44 8.8 ESE 11 17 6 9 1011.2 1010.0 0.0
21/12:30pm 32.1 33.1 19.4 47 8.4 NE 13 17 7 9 1011.8 1010.6 0.0
21/12:00pm 31.8 32.6 19.9 49 7.9 NNE 15 22 8 12 1012.4 1011.2 0.0
21/11:30am 30.3 30.6 19.5 52 7.1 NE 17 24 9 13 1012.7 1011.5 0.0
21/11:00am 30.3 31.1 20.6 56 6.5 NE 17 24 9 13 1013.1 1011.9 0.0
21/10:30am 29.0 29.7 19.7 57 6.1 NE 15 22 8 12 1013.1 1011.9 0.0
21/10:00am 28.6 30.1 20.5 61 5.4 NE 13 19 7 10 1013.5 1012.3 0.0
21/09:30am 26.3 27.2 20.0 68 4.1 NE 15 20 8 11 1013.6 1012.4 0.0
21/09:00am 26.1 27.1 20.3 70 3.8 NNE 15 19 8 10 1013.5 1012.3 32.4
21/08:30am 25.3 27.1 20.4 74 3.2 NNE 11 15 6 8 1013.2 1012.0 32.2
21/08:00am 24.0 26.8 20.8 82 2.1 ENE 7 11 4 6 1012.8 1011.6 32.2
21/07:30am 23.2 26.1 20.6 85 1.7 SSE 6 7 3 4 1012.6 1011.4 32.2
21/07:00am 21.5 24.2 20.6 95 0.6 SSE 7 7 4 4 1012.1 1010.9 32.2
21/06:30am 21.2 24.0 20.4 95 0.5 E 6 7 3 4 1011.6 1010.4 32.2
21/06:00am 21.2 23.8 20.4 95 0.5 E 7 7 4 4 1011.3 1010.1 32.2
21/05:30am 21.2 23.8 20.4 95 0.5 E 7 7 4 4 1011.2 1010.0 32.2
21/05:00am 21.3 25.3 20.5 95 0.5 CALM 0 0 0 0 1010.9 1009.7 32.2
21/04:30am 21.6 25.5 20.4 93 0.8 CALM 0 0 0 0 1010.6 1009.4 32.2
21/04:00am 21.8 25.7 20.4 92 0.9 CALM 0 6 0 3 1010.4 1009.1 32.2
21/03:30am 21.8 24.4 20.4 92 0.9 NNE 7 9 4 5 1010.2 1008.9 32.2
21/03:00am 22.1 24.3 20.3 89 1.2 NNE 9 11 5 6 1010.2 1008.9 32.2
21/02:30am 22.6 23.5 20.1 86 1.6 NE 15 19 8 10 1010.4 1009.1 32.2
21/02:00am 22.9 23.5 20.3 85 1.7 NNE 17 22 9 12 1010.6 1009.4 32.2
21/01:30am 23.2 22.5 20.3 84 1.9 NNE 24 30 13 16 1010.8 1009.6 32.2
21/01:00am 23.6 22.3 20.6 83 2.0 NE 28 37 15 20 1011.0 1009.8 32.2
21/12:30am 24.5 24.1 20.9 80 2.4 NE 24 30 13 16 1011.3 1010.1 32.2
21/12:00am 24.7 23.9 20.9 79 2.5 NE 26 32 14 17 1011.1 1009.9 32.2
 
Date/Time
EST
Temp
°C
App
Temp
°C
Dew
Point
°C
Rel
Hum
%
Delta-T
°C
Wind Press
QNH
hPa
Press
MSL
hPa
Rain since
9am
mm
Dir  Spd
km/h
Gust
km/h
Spd
kts
Gust
kts
20/11:30pm 24.6 23.5 21.1 81 2.3 NE 28 37 15 20 1011.1 1009.9 32.2
20/11:00pm 24.8 23.0 21.2 80 2.4 ENE 32 41 17 22 1011.2 1010.0 32.2
20/10:30pm 24.5 23.2 20.7 79 2.5 ENE 28 35 15 19 1011.3 1010.1 32.2
20/10:00pm 23.4 24.0 21.1 87 1.5 NE 19 22 10 12 1011.0 1009.8 32.2
20/09:30pm 23.1 24.6 21.3 90 1.2 NE 15 19 8 10 1011.0 1009.8 32.2
20/09:00pm 22.8 27.2 21.4 92 0.9 CALM 0 7 0 4 1010.6 1009.4 32.2
20/08:30pm 23.1 25.4 20.7 86 1.6 NNE 9 11 5 6 1010.0 1008.7 32.2
20/08:00pm 23.3 24.9 20.7 85 1.7 ENE 13 17 7 9 1009.7 1008.4 32.2
20/07:30pm 23.3 26.3 21.3 88 1.3 E 7 19 4 10 1009.2 1008.0 32.2
20/07:00pm 23.4 26.8 21.6 90 1.2 ENE 6 7 3 4 1008.8 1007.6 32.2
20/06:30pm 23.6 25.9 20.6 83 2.0 NE 9 11 5 6 1009.1 1007.9 32.2
20/06:00pm 24.0 25.7 20.2 79 2.5 NNE 11 15 6 8 1009.7 1008.4 32.2
20/05:30pm 24.3 24.8 20.0 77 2.8 NNW 17 28 9 15 1009.5 1008.3 32.2
20/05:00pm 24.1 26.3 21.1 83 2.0 NNW 11 15 6 8 1009.3 1008.1 32.2
20/04:30pm 23.4 26.5 21.4 88 1.3 N 7 7 4 4 1008.3 1007.1 32.2
20/04:00pm 22.6 24.3 19.3 81 2.1 WSW 9 28 5 15 1008.4 1007.2 32.2
20/03:30pm 21.6 20.3 19.1 86 1.6 NE 24 30 13 16 1008.6 1007.4 31.8
20/03:00pm 21.1 19.4 19.7 92 0.9 NNE 28 35 15 19 1009.7 1008.4 31.8
20/02:56pm 21.3 18.7 19.4 89 1.2 NNE 32 39 17 21 1010.0 1008.7 31.8
20/02:34pm 21.4 18.7 19.7 90 1.1 NNE 33 39 18 21 1010.5 1009.3 30.4
20/02:30pm 21.3 19.3 19.9 92 0.9 NNE 30 39 16 21 1010.6 1009.4 29.6
20/02:19pm 21.5 20.5 20.4 93 0.7 NNE 26 35 14 19 1010.4 1009.1 28.6
20/02:04pm 22.4 22.1 19.6 84 1.8 NNW 20 32 11 17 1010.3 1009.0 28.2
20/02:00pm 21.8 21.2 18.8 83 1.9 NNW 20 50 11 27 1010.2 1008.9 27.2
20/01:51pm 20.9 17.2 19.2 90 1.1 N 37 117 20 63 1010.4 1009.1 20.0
20/01:46pm 20.7 15.1 19.6 93 0.7 NNW 48 117 26 63 1011.1 1009.9 13.4
20/01:43pm 21.2 16.3 21.0 99 0.1 NNW 48 117 26 63 1010.2 1008.9 6.6
20/01:40pm 21.7 18.5 21.7 100 0.0 NW 41 72 22 39 1010.1 1008.8 2.0
20/01:39pm 22.9 20.6 22.0 95 0.6 NW 37 57 20 31 1010.0 1008.7 0.6
20/01:35pm 28.1 25.5 19.4 59 5.7 WNW 32 54 17 29 1009.7 1008.4 0.2
20/01:30pm 28.4 26.2 17.8 52 6.8 WNW 26 37 14 20 1009.4 1008.2 0.2
20/01:00pm 31.7 32.9 21.4 54 7.0 NNE 17 30 9 16 1010.0 1008.7 0.2
20/12:30pm 32.0 32.8 21.4 53 7.2 NNE 19 30 10 16 1010.4 1009.1 0.2
20/12:00pm 31.6 31.6 21.6 55 6.8 N 24 33 13 18 1011.0 1009.8 0.2
20/11:30am 31.8 32.0 22.0 56 6.7 N 24 35 13 19 1011.3 1010.1 0.2
20/11:00am 31.1 31.5 22.4 60 6.0 NNE 24 33 13 18 1011.6 1010.4 0.2
20/10:30am 29.9 29.7 22.1 63 5.3 NNE 26 32 14 17 1012.0 1010.8 0.2
20/10:00am 29.2 28.3 22.1 65 4.8 NNE 30 37 16 20 1012.2 1011.0 0.2
20/09:30am 28.3 27.9 22.3 70 4.1 NNE 28 39 15 21 1012.4 1011.2 0.0
20/09:00am 25.7 26.0 22.3 81 2.3 NNE 24 30 13 16 1012.5 1011.3 13.0
20/08:30am 25.3 25.6 22.3 83 2.0 NNE 24 33 13 18 1012.3 1011.1 12.8

Other Formats:

Comma delimited format used in spreadsheet applications
http://www.bom.gov.au/fwo/IDQ60801/IDQ60801.94346.axf

JavaScript Object Notation format (JSON) in row-major order
http://www.bom.gov.au/fwo/IDQ60801/IDQ60801.94346.json